sensor_id;sensor_type;location;lat;lon;timestamp;P1;durP1;ratioP1;P2;durP2;ratioP2
61673;SDS011;47573;43.832;5.974;2022-10-10T00:00:59;521.10;;;348.20;;
61673;SDS011;47573;43.832;5.974;2022-10-10T00:06:00;524.47;;;350.63;;
61673;SDS011;47573;43.832;5.974;2022-10-10T00:11:02;515.17;;;345.15;;
61673;SDS011;47573;43.832;5.974;2022-10-10T00:16:04;518.75;;;345.77;;
61673;SDS011;47573;43.832;5.974;2022-10-10T00:21:05;512.05;;;338.13;;
61673;SDS011;47573;43.832;5.974;2022-10-10T00:26:07;509.50;;;333.48;;
61673;SDS011;47573;43.832;5.974;2022-10-10T00:31:08;508.27;;;333.67;;
61673;SDS011;47573;43.832;5.974;2022-10-10T00:36:09;496.85;;;323.05;;
61673;SDS011;47573;43.832;5.974;2022-10-10T00:41:11;493.70;;;323.92;;
61673;SDS011;47573;43.832;5.974;2022-10-10T00:46:11;490.98;;;322.05;;
61673;SDS011;47573;43.832;5.974;2022-10-10T00:51:13;485.75;;;317.02;;
61673;SDS011;47573;43.832;5.974;2022-10-10T00:56:20;479.38;;;311.65;;
61673;SDS011;47573;43.832;5.974;2022-10-10T01:01:24;480.50;;;311.05;;
61673;SDS011;47573;43.832;5.974;2022-10-10T01:06:25;483.75;;;309.80;;
61673;SDS011;47573;43.832;5.974;2022-10-10T01:16:48;470.17;;;300.20;;
61673;SDS011;47573;43.832;5.974;2022-10-10T01:21:58;474.23;;;304.17;;
61673;SDS011;47573;43.832;5.974;2022-10-10T01:27:28;465.20;;;299.98;;
61673;SDS011;47573;43.832;5.974;2022-10-10T01:32:33;462.88;;;294.88;;
61673;SDS011;47573;43.832;5.974;2022-10-10T01:37:41;456.40;;;292.70;;
61673;SDS011;47573;43.832;5.974;2022-10-10T01:42:47;455.25;;;288.13;;
61673;SDS011;47573;43.832;5.974;2022-10-10T01:47:51;437.05;;;282.33;;
61673;SDS011;47573;43.832;5.974;2022-10-10T01:52:57;436.80;;;284.65;;
61673;SDS011;47573;43.832;5.974;2022-10-10T01:58:10;436.27;;;276.45;;
61673;SDS011;47573;43.832;5.974;2022-10-10T02:03:19;432.63;;;276.27;;
61673;SDS011;47573;43.832;5.974;2022-10-10T02:08:27;419.20;;;269.95;;
61673;SDS011;47573;43.832;5.974;2022-10-10T02:13:34;426.85;;;274.42;;
61673;SDS011;47573;43.832;5.974;2022-10-10T02:18:38;424.70;;;264.30;;
61673;SDS011;47573;43.832;5.974;2022-10-10T02:23:39;414.83;;;267.45;;
61673;SDS011;47573;43.832;5.974;2022-10-10T02:28:43;414.08;;;262.80;;
61673;SDS011;47573;43.832;5.974;2022-10-10T02:33:49;410.38;;;259.52;;
61673;SDS011;47573;43.832;5.974;2022-10-10T02:38:54;404.27;;;253.15;;
61673;SDS011;47573;43.832;5.974;2022-10-10T02:43:58;403.88;;;256.38;;
61673;SDS011;47573;43.832;5.974;2022-10-10T02:49:00;386.85;;;250.48;;
61673;SDS011;47573;43.832;5.974;2022-10-10T02:54:01;391.50;;;248.18;;
61673;SDS011;47573;43.832;5.974;2022-10-10T02:59:01;388.42;;;244.48;;
61673;SDS011;47573;43.832;5.974;2022-10-10T03:04:03;377.98;;;241.85;;
61673;SDS011;47573;43.832;5.974;2022-10-10T03:09:04;384.77;;;240.57;;
61673;SDS011;47573;43.832;5.974;2022-10-10T03:14:04;373.33;;;238.00;;
61673;SDS011;47573;43.832;5.974;2022-10-10T03:19:06;369.77;;;233.13;;
61673;SDS011;47573;43.832;5.974;2022-10-10T03:24:07;369.15;;;230.82;;
61673;SDS011;47573;43.832;5.974;2022-10-10T03:29:07;362.42;;;228.88;;
61673;SDS011;47573;43.832;5.974;2022-10-10T03:34:09;365.42;;;227.10;;
61673;SDS011;47573;43.832;5.974;2022-10-10T03:39:10;360.67;;;224.18;;
61673;SDS011;47573;43.832;5.974;2022-10-10T03:44:10;354.70;;;222.70;;
61673;SDS011;47573;43.832;5.974;2022-10-10T03:49:12;351.52;;;216.30;;
61673;SDS011;47573;43.832;5.974;2022-10-10T03:54:13;343.33;;;215.85;;
61673;SDS011;47573;43.832;5.974;2022-10-10T03:59:13;344.05;;;216.95;;
61673;SDS011;47573;43.832;5.974;2022-10-10T04:04:15;344.20;;;214.15;;
61673;SDS011;47573;43.832;5.974;2022-10-10T04:09:15;341.05;;;208.65;;
61673;SDS011;47573;43.832;5.974;2022-10-10T04:14:16;336.52;;;207.00;;
61673;SDS011;47573;43.832;5.974;2022-10-10T04:19:18;324.27;;;201.57;;
61673;SDS011;47573;43.832;5.974;2022-10-10T04:24:18;321.60;;;199.30;;
61673;SDS011;47573;43.832;5.974;2022-10-10T04:29:19;322.02;;;196.27;;
61673;SDS011;47573;43.832;5.974;2022-10-10T04:34:21;321.20;;;196.40;;
61673;SDS011;47573;43.832;5.974;2022-10-10T04:39:21;308.33;;;190.30;;
61673;SDS011;47573;43.832;5.974;2022-10-10T04:44:22;313.85;;;194.48;;
61673;SDS011;47573;43.832;5.974;2022-10-10T04:49:23;309.00;;;188.18;;
61673;SDS011;47573;43.832;5.974;2022-10-10T04:54:24;311.20;;;188.43;;
61673;SDS011;47573;43.832;5.974;2022-10-10T04:59:25;309.65;;;185.50;;
61673;SDS011;47573;43.832;5.974;2022-10-10T05:04:26;299.23;;;182.02;;
61673;SDS011;47573;43.832;5.974;2022-10-10T05:09:27;297.90;;;179.40;;
61673;SDS011;47573;43.832;5.974;2022-10-10T05:14:27;294.23;;;179.27;;
61673;SDS011;47573;43.832;5.974;2022-10-10T05:19:29;287.40;;;174.00;;
61673;SDS011;47573;43.832;5.974;2022-10-10T05:24:30;287.73;;;173.38;;
61673;SDS011;47573;43.832;5.974;2022-10-10T05:29:30;290.08;;;173.32;;
61673;SDS011;47573;43.832;5.974;2022-10-10T05:34:32;283.42;;;168.73;;
61673;SDS011;47573;43.832;5.974;2022-10-10T05:39:32;278.60;;;165.13;;
61673;SDS011;47573;43.832;5.974;2022-10-10T05:44:33;279.23;;;164.65;;
61673;SDS011;47573;43.832;5.974;2022-10-10T05:49:35;269.60;;;159.93;;
61673;SDS011;47573;43.832;5.974;2022-10-10T05:54:35;268.08;;;155.55;;
61673;SDS011;47573;43.832;5.974;2022-10-10T05:59:36;264.80;;;153.50;;
61673;SDS011;47573;43.832;5.974;2022-10-10T06:04:38;262.20;;;153.38;;
61673;SDS011;47573;43.832;5.974;2022-10-10T06:09:39;257.65;;;151.07;;
61673;SDS011;47573;43.832;5.974;2022-10-10T06:14:39;250.50;;;148.70;;
61673;SDS011;47573;43.832;5.974;2022-10-10T06:19:41;254.55;;;148.18;;
61673;SDS011;47573;43.832;5.974;2022-10-10T06:24:42;241.90;;;143.95;;
61673;SDS011;47573;43.832;5.974;2022-10-10T06:29:42;247.18;;;143.27;;
61673;SDS011;47573;43.832;5.974;2022-10-10T06:34:44;235.23;;;140.10;;
61673;SDS011;47573;43.832;5.974;2022-10-10T06:39:45;238.95;;;139.38;;
61673;SDS011;47573;43.832;5.974;2022-10-10T06:44:45;234.98;;;137.68;;
61673;SDS011;47573;43.832;5.974;2022-10-10T06:49:47;228.23;;;135.35;;
61673;SDS011;47573;43.832;5.974;2022-10-10T06:54:47;228.32;;;133.80;;
61673;SDS011;47573;43.832;5.974;2022-10-10T06:59:48;222.13;;;132.25;;
61673;SDS011;47573;43.832;5.974;2022-10-10T07:04:50;225.02;;;131.50;;
61673;SDS011;47573;43.832;5.974;2022-10-10T07:09:50;224.60;;;131.30;;
61673;SDS011;47573;43.832;5.974;2022-10-10T07:14:51;221.50;;;127.90;;
61673;SDS011;47573;43.832;5.974;2022-10-10T07:19:52;215.63;;;125.35;;
61673;SDS011;47573;43.832;5.974;2022-10-10T07:24:53;219.60;;;127.22;;
61673;SDS011;47573;43.832;5.974;2022-10-10T07:29:53;207.15;;;122.35;;
61673;SDS011;47573;43.832;5.974;2022-10-10T07:34:55;211.75;;;124.07;;
61673;SDS011;47573;43.832;5.974;2022-10-10T07:39:56;210.13;;;121.20;;
61673;SDS011;47573;43.832;5.974;2022-10-10T07:44:56;203.32;;;120.78;;
61673;SDS011;47573;43.832;5.974;2022-10-10T07:49:58;202.85;;;118.07;;
61673;SDS011;47573;43.832;5.974;2022-10-10T07:54:59;202.30;;;116.97;;
61673;SDS011;47573;43.832;5.974;2022-10-10T07:59:59;196.38;;;115.57;;
61673;SDS011;47573;43.832;5.974;2022-10-10T08:05:01;193.55;;;113.13;;
61673;SDS011;47573;43.832;5.974;2022-10-10T08:10:02;148.10;;;85.72;;
61673;SDS011;47573;43.832;5.974;2022-10-10T08:15:03;105.50;;;59.90;;
61673;SDS011;47573;43.832;5.974;2022-10-10T08:20:06;105.07;;;53.72;;
61673;SDS011;47573;43.832;5.974;2022-10-10T08:25:07;378.02;;;121.03;;
61673;SDS011;47573;43.832;5.974;2022-10-10T08:30:08;154.13;;;65.53;;
61673;SDS011;47573;43.832;5.974;2022-10-10T08:35:11;43.25;;;22.80;;
61673;SDS011;47573;43.832;5.974;2022-10-10T08:40:12;87.63;;;49.25;;
61673;SDS011;47573;43.832;5.974;2022-10-10T08:45:15;94.93;;;55.28;;
61673;SDS011;47573;43.832;5.974;2022-10-10T08:50:20;100.70;;;59.77;;
61673;SDS011;47573;43.832;5.974;2022-10-10T08:55:25;102.00;;;58.33;;
61673;SDS011;47573;43.832;5.974;2022-10-10T09:05:40;100.10;;;56.83;;
61673;SDS011;47573;43.832;5.974;2022-10-10T09:10:50;103.95;;;57.95;;
61673;SDS011;47573;43.832;5.974;2022-10-10T09:20:58;102.93;;;56.50;;
61673;SDS011;47573;43.832;5.974;2022-10-10T09:26:06;96.75;;;56.30;;
61673;SDS011;47573;43.832;5.974;2022-10-10T09:36:16;93.63;;;55.15;;
61673;SDS011;47573;43.832;5.974;2022-10-10T09:41:22;88.20;;;52.35;;
61673;SDS011;47573;43.832;5.974;2022-10-10T09:46:28;90.70;;;52.85;;
61673;SDS011;47573;43.832;5.974;2022-10-10T09:51:31;86.18;;;52.65;;
61673;SDS011;47573;43.832;5.974;2022-10-10T09:56:37;88.50;;;52.78;;
61673;SDS011;47573;43.832;5.974;2022-10-10T10:01:41;88.22;;;52.38;;
61673;SDS011;47573;43.832;5.974;2022-10-10T10:07:05;86.03;;;51.70;;
61673;SDS011;47573;43.832;5.974;2022-10-10T10:12:16;80.82;;;48.03;;
61673;SDS011;47573;43.832;5.974;2022-10-10T10:22:33;79.43;;;47.03;;
61673;SDS011;47573;43.832;5.974;2022-10-10T10:32:40;77.53;;;48.13;;
61673;SDS011;47573;43.832;5.974;2022-10-10T10:37:53;64.45;;;37.83;;
61673;SDS011;47573;43.832;5.974;2022-10-10T10:43:13;678.45;;;279.83;;
61673;SDS011;47573;43.832;5.974;2022-10-10T10:48:40;63.70;;;39.20;;
61673;SDS011;47573;43.832;5.974;2022-10-10T10:53:47;54.97;;;31.42;;
61673;SDS011;47573;43.832;5.974;2022-10-10T10:58:58;49.55;;;31.90;;
61673;SDS011;47573;43.832;5.974;2022-10-10T11:04:15;54.15;;;31.65;;
61673;SDS011;47573;43.832;5.974;2022-10-10T11:09:25;54.03;;;32.28;;
61673;SDS011;47573;43.832;5.974;2022-10-10T11:14:39;52.83;;;32.17;;
61673;SDS011;47573;43.832;5.974;2022-10-10T11:19:48;55.07;;;32.03;;
61673;SDS011;47573;43.832;5.974;2022-10-10T11:24:57;53.30;;;31.00;;
61673;SDS011;47573;43.832;5.974;2022-10-10T11:30:03;48.03;;;30.45;;
61673;SDS011;47573;43.832;5.974;2022-10-10T11:35:17;48.30;;;30.85;;
61673;SDS011;47573;43.832;5.974;2022-10-10T11:40:29;46.28;;;29.17;;
61673;SDS011;47573;43.832;5.974;2022-10-10T11:45:42;44.95;;;29.27;;
61673;SDS011;47573;43.832;5.974;2022-10-10T11:50:43;45.35;;;28.48;;
61673;SDS011;47573;43.832;5.974;2022-10-10T11:55:52;45.00;;;28.33;;
61673;SDS011;47573;43.832;5.974;2022-10-10T12:00:56;44.17;;;28.45;;
61673;SDS011;47573;43.832;5.974;2022-10-10T12:05:59;44.67;;;28.38;;
61673;SDS011;47573;43.832;5.974;2022-10-10T12:11:10;44.30;;;28.73;;
61673;SDS011;47573;43.832;5.974;2022-10-10T12:16:18;42.45;;;27.88;;
61673;SDS011;47573;43.832;5.974;2022-10-10T12:21:21;42.87;;;28.53;;
61673;SDS011;47573;43.832;5.974;2022-10-10T12:26:25;43.10;;;27.33;;
61673;SDS011;47573;43.832;5.974;2022-10-10T12:32:22;43.88;;;28.08;;
61673;SDS011;47573;43.832;5.974;2022-10-10T12:37:24;42.95;;;26.90;;
61673;SDS011;47573;43.832;5.974;2022-10-10T12:42:29;42.65;;;27.08;;
61673;SDS011;47573;43.832;5.974;2022-10-10T12:47:40;43.72;;;27.90;;
61673;SDS011;47573;43.832;5.974;2022-10-10T12:52:45;43.67;;;27.50;;
61673;SDS011;47573;43.832;5.974;2022-10-10T12:57:48;38.33;;;26.27;;
61673;SDS011;47573;43.832;5.974;2022-10-10T13:02:52;38.05;;;25.75;;
61673;SDS011;47573;43.832;5.974;2022-10-10T13:07:54;41.92;;;27.05;;
61673;SDS011;47573;43.832;5.974;2022-10-10T13:13:02;40.72;;;26.00;;
61673;SDS011;47573;43.832;5.974;2022-10-10T13:18:04;41.85;;;26.73;;
61673;SDS011;47573;43.832;5.974;2022-10-10T13:23:06;41.42;;;26.02;;
61673;SDS011;47573;43.832;5.974;2022-10-10T13:28:14;38.08;;;24.83;;
61673;SDS011;47573;43.832;5.974;2022-10-10T13:33:17;35.60;;;24.48;;
61673;SDS011;47573;43.832;5.974;2022-10-10T13:38:22;37.45;;;24.40;;
61673;SDS011;47573;43.832;5.974;2022-10-10T13:43:26;39.10;;;24.67;;
61673;SDS011;47573;43.832;5.974;2022-10-10T13:48:28;38.10;;;24.70;;
61673;SDS011;47573;43.832;5.974;2022-10-10T13:53:50;35.60;;;24.40;;
61673;SDS011;47573;43.832;5.974;2022-10-10T13:58:54;36.58;;;23.50;;
61673;SDS011;47573;43.832;5.974;2022-10-10T14:03:57;34.83;;;23.87;;
61673;SDS011;47573;43.832;5.974;2022-10-10T14:09:04;33.72;;;22.85;;
61673;SDS011;47573;43.832;5.974;2022-10-10T14:14:16;32.95;;;22.48;;
61673;SDS011;47573;43.832;5.974;2022-10-10T14:19:24;34.97;;;22.63;;
61673;SDS011;47573;43.832;5.974;2022-10-10T14:24:25;32.90;;;21.90;;
61673;SDS011;47573;43.832;5.974;2022-10-10T14:29:27;31.23;;;21.45;;
61673;SDS011;47573;43.832;5.974;2022-10-10T14:34:28;30.95;;;21.80;;
61673;SDS011;47573;43.832;5.974;2022-10-10T14:39:29;43.78;;;28.10;;
61673;SDS011;47573;43.832;5.974;2022-10-10T14:44:30;99.93;;;59.05;;
61673;SDS011;47573;43.832;5.974;2022-10-10T14:49:31;115.05;;;69.97;;
61673;SDS011;47573;43.832;5.974;2022-10-10T14:54:31;179.27;;;103.57;;
61673;SDS011;47573;43.832;5.974;2022-10-10T14:59:33;175.23;;;101.85;;
61673;SDS011;47573;43.832;5.974;2022-10-10T15:04:34;147.45;;;89.05;;
61673;SDS011;47573;43.832;5.974;2022-10-10T15:09:34;156.75;;;93.25;;
61673;SDS011;47573;43.832;5.974;2022-10-10T15:14:36;199.57;;;119.13;;
61673;SDS011;47573;43.832;5.974;2022-10-10T15:19:37;190.52;;;115.15;;
61673;SDS011;47573;43.832;5.974;2022-10-10T15:24:37;183.60;;;111.88;;
61673;SDS011;47573;43.832;5.974;2022-10-10T15:29:39;174.77;;;108.55;;
61673;SDS011;47573;43.832;5.974;2022-10-10T15:34:40;176.10;;;107.97;;
61673;SDS011;47573;43.832;5.974;2022-10-10T15:39:40;217.02;;;134.02;;
61673;SDS011;47573;43.832;5.974;2022-10-10T15:44:43;242.57;;;150.15;;
61673;SDS011;47573;43.832;5.974;2022-10-10T15:49:44;264.00;;;170.87;;
61673;SDS011;47573;43.832;5.974;2022-10-10T15:54:46;247.73;;;154.52;;
61673;SDS011;47573;43.832;5.974;2022-10-10T15:59:48;241.82;;;150.13;;
61673;SDS011;47573;43.832;5.974;2022-10-10T16:04:49;321.67;;;212.93;;
61673;SDS011;47573;43.832;5.974;2022-10-10T16:09:49;344.52;;;229.32;;
61673;SDS011;47573;43.832;5.974;2022-10-10T16:14:51;344.92;;;229.23;;
61673;SDS011;47573;43.832;5.974;2022-10-10T16:19:52;326.30;;;216.80;;
61673;SDS011;47573;43.832;5.974;2022-10-10T16:24:52;319.00;;;209.57;;
61673;SDS011;47573;43.832;5.974;2022-10-10T16:29:54;316.73;;;207.88;;
61673;SDS011;47573;43.832;5.974;2022-10-10T16:34:55;367.33;;;242.85;;
61673;SDS011;47573;43.832;5.974;2022-10-10T16:39:58;376.58;;;258.35;;
61673;SDS011;47573;43.832;5.974;2022-10-10T16:45:00;389.35;;;262.92;;
61673;SDS011;47573;43.832;5.974;2022-10-10T16:50:00;373.73;;;248.07;;
61673;SDS011;47573;43.832;5.974;2022-10-10T16:55:01;376.83;;;254.77;;
61673;SDS011;47573;43.832;5.974;2022-10-10T17:00:03;376.30;;;252.30;;
61673;SDS011;47573;43.832;5.974;2022-10-10T17:05:06;387.42;;;262.13;;
61673;SDS011;47573;43.832;5.974;2022-10-10T17:10:07;432.88;;;302.33;;
61673;SDS011;47573;43.832;5.974;2022-10-10T17:15:09;432.25;;;300.63;;
61673;SDS011;47573;43.832;5.974;2022-10-10T17:20:14;430.67;;;296.42;;
61673;SDS011;47573;43.832;5.974;2022-10-10T17:30:16;422.47;;;283.33;;
61673;SDS011;47573;43.832;5.974;2022-10-10T17:35:17;437.40;;;297.60;;
61673;SDS011;47573;43.832;5.974;2022-10-10T17:40:17;454.98;;;307.40;;
61673;SDS011;47573;43.832;5.974;2022-10-10T17:45:19;479.58;;;324.23;;
61673;SDS011;47573;43.832;5.974;2022-10-10T17:50:20;529.13;;;375.77;;
61673;SDS011;47573;43.832;5.974;2022-10-10T17:55:20;515.17;;;359.65;;
61673;SDS011;47573;43.832;5.974;2022-10-10T18:00:22;512.30;;;357.42;;
61673;SDS011;47573;43.832;5.974;2022-10-10T18:05:23;781.13;;;453.55;;
61673;SDS011;47573;43.832;5.974;2022-10-10T18:10:23;1999.90;;;969.72;;
61673;SDS011;47573;43.832;5.974;2022-10-10T18:15:27;499.45;;;337.55;;
61673;SDS011;47573;43.832;5.974;2022-10-10T18:20:27;535.28;;;375.27;;
61673;SDS011;47573;43.832;5.974;2022-10-10T18:25:28;535.42;;;378.42;;
61673;SDS011;47573;43.832;5.974;2022-10-10T18:30:30;536.50;;;379.15;;
61673;SDS011;47573;43.832;5.974;2022-10-10T18:35:30;763.42;;;478.15;;
61673;SDS011;47573;43.832;5.974;2022-10-10T18:40:31;1741.05;;;827.35;;
61673;SDS011;47573;43.832;5.974;2022-10-10T18:45:33;1729.50;;;822.97;;
61673;SDS011;47573;43.832;5.974;2022-10-10T18:50:33;558.65;;;397.50;;
61673;SDS011;47573;43.832;5.974;2022-10-10T18:55:34;570.97;;;418.15;;
61673;SDS011;47573;43.832;5.974;2022-10-10T19:00:35;628.75;;;447.48;;
61673;SDS011;47573;43.832;5.974;2022-10-10T19:05:39;568.72;;;418.10;;
61673;SDS011;47573;43.832;5.974;2022-10-10T19:10:42;560.05;;;406.73;;
61673;SDS011;47573;43.832;5.974;2022-10-10T19:15:45;562.17;;;411.80;;
61673;SDS011;47573;43.832;5.974;2022-10-10T19:20:46;585.63;;;425.83;;
61673;SDS011;47573;43.832;5.974;2022-10-10T19:25:46;597.97;;;444.98;;
61673;SDS011;47573;43.832;5.974;2022-10-10T19:30:48;597.70;;;441.50;;
61673;SDS011;47573;43.832;5.974;2022-10-10T19:35:49;610.50;;;446.65;;
61673;SDS011;47573;43.832;5.974;2022-10-10T19:40:49;613.80;;;449.25;;
61673;SDS011;47573;43.832;5.974;2022-10-10T19:45:51;619.55;;;466.40;;
61673;SDS011;47573;43.832;5.974;2022-10-10T19:50:51;619.15;;;458.63;;
61673;SDS011;47573;43.832;5.974;2022-10-10T19:55:55;615.60;;;465.15;;
61673;SDS011;47573;43.832;5.974;2022-10-10T20:05:58;616.58;;;453.23;;
61673;SDS011;47573;43.832;5.974;2022-10-10T20:10:59;607.03;;;448.80;;
61673;SDS011;47573;43.832;5.974;2022-10-10T20:16:01;610.50;;;454.48;;
61673;SDS011;47573;43.832;5.974;2022-10-10T20:21:08;602.33;;;442.10;;
61673;SDS011;47573;43.832;5.974;2022-10-10T20:26:11;608.85;;;455.63;;
61673;SDS011;47573;43.832;5.974;2022-10-10T20:31:15;592.58;;;442.17;;
61673;SDS011;47573;43.832;5.974;2022-10-10T20:36:18;606.15;;;446.40;;
61673;SDS011;47573;43.832;5.974;2022-10-10T20:41:19;590.60;;;436.98;;
61673;SDS011;47573;43.832;5.974;2022-10-10T20:46:22;591.22;;;437.30;;
61673;SDS011;47573;43.832;5.974;2022-10-10T20:51:23;602.67;;;447.40;;
61673;SDS011;47573;43.832;5.974;2022-10-10T20:56:24;588.58;;;432.35;;
61673;SDS011;47573;43.832;5.974;2022-10-10T21:01:27;573.67;;;419.73;;
61673;SDS011;47573;43.832;5.974;2022-10-10T21:06:31;590.92;;;438.15;;
61673;SDS011;47573;43.832;5.974;2022-10-10T21:11:32;594.50;;;438.95;;
61673;SDS011;47573;43.832;5.974;2022-10-10T21:16:36;606.97;;;443.70;;
61673;SDS011;47573;43.832;5.974;2022-10-10T21:21:39;590.75;;;437.48;;
61673;SDS011;47573;43.832;5.974;2022-10-10T21:26:40;591.95;;;432.73;;
61673;SDS011;47573;43.832;5.974;2022-10-10T21:31:43;588.17;;;431.67;;
61673;SDS011;47573;43.832;5.974;2022-10-10T21:36:43;586.53;;;422.58;;
61673;SDS011;47573;43.832;5.974;2022-10-10T21:41:44;583.83;;;422.85;;
61673;SDS011;47573;43.832;5.974;2022-10-10T21:46:46;587.95;;;420.45;;
61673;SDS011;47573;43.832;5.974;2022-10-10T21:51:46;582.30;;;415.95;;
61673;SDS011;47573;43.832;5.974;2022-10-10T21:56:47;577.30;;;413.30;;
61673;SDS011;47573;43.832;5.974;2022-10-10T22:01:49;575.45;;;413.92;;
61673;SDS011;47573;43.832;5.974;2022-10-10T22:06:49;574.42;;;411.67;;
61673;SDS011;47573;43.832;5.974;2022-10-10T22:11:50;569.50;;;410.08;;
61673;SDS011;47573;43.832;5.974;2022-10-10T22:16:51;571.88;;;408.88;;
61673;SDS011;47573;43.832;5.974;2022-10-10T22:21:52;570.90;;;403.67;;
61673;SDS011;47573;43.832;5.974;2022-10-10T22:26:52;568.13;;;397.80;;
61673;SDS011;47573;43.832;5.974;2022-10-10T22:31:54;560.65;;;396.20;;
61673;SDS011;47573;43.832;5.974;2022-10-10T22:36:55;561.63;;;391.50;;
61673;SDS011;47573;43.832;5.974;2022-10-10T22:41:55;555.33;;;393.35;;
61673;SDS011;47573;43.832;5.974;2022-10-10T22:46:57;554.78;;;385.77;;
61673;SDS011;47573;43.832;5.974;2022-10-10T22:51:57;553.05;;;385.10;;
61673;SDS011;47573;43.832;5.974;2022-10-10T22:56:58;544.05;;;382.05;;
61673;SDS011;47573;43.832;5.974;2022-10-10T23:02:00;548.95;;;382.63;;
61673;SDS011;47573;43.832;5.974;2022-10-10T23:07:00;541.28;;;376.65;;
61673;SDS011;47573;43.832;5.974;2022-10-10T23:12:01;539.72;;;372.15;;
61673;SDS011;47573;43.832;5.974;2022-10-10T23:17:03;541.47;;;372.88;;
61673;SDS011;47573;43.832;5.974;2022-10-10T23:22:04;540.58;;;369.05;;
61673;SDS011;47573;43.832;5.974;2022-10-10T23:27:04;533.85;;;363.90;;
61673;SDS011;47573;43.832;5.974;2022-10-10T23:32:06;530.15;;;364.83;;
61673;SDS011;47573;43.832;5.974;2022-10-10T23:37:06;531.95;;;364.13;;
61673;SDS011;47573;43.832;5.974;2022-10-10T23:42:07;523.42;;;360.02;;
61673;SDS011;47573;43.832;5.974;2022-10-10T23:47:09;529.75;;;362.33;;
61673;SDS011;47573;43.832;5.974;2022-10-10T23:52:09;527.13;;;362.17;;
61673;SDS011;47573;43.832;5.974;2022-10-10T23:57:10;517.65;;;352.38;;
